createdAt,value
2023-01-26T04:50:11.847Z,518.92
2023-01-26T04:52:38.618Z,513.80
2023-01-26T04:55:05.550Z,513.25
2023-01-26T04:57:32.120Z,515.72
2023-01-26T04:59:58.712Z,518.33
2023-01-26T05:02:25.342Z,520.15
2023-01-26T05:04:51.955Z,522.67
2023-01-26T05:07:18.588Z,522.28
2023-01-26T05:09:45.161Z,517.50
2023-01-26T05:12:30.645Z,514.65
2023-01-26T05:14:57.267Z,508.33
2023-01-26T05:17:23.943Z,504.98
2023-01-26T05:19:50.610Z,506.38
2023-01-26T05:22:17.214Z,508.25
2023-01-26T05:24:43.797Z,508.33
2023-01-26T05:27:22.461Z,509.05
2023-01-26T05:29:50.499Z,508.67
2023-01-26T05:32:17.496Z,510.73
2023-01-26T05:34:44.219Z,516.30
2023-01-26T05:37:12.554Z,510.17
2023-01-26T05:39:40.275Z,515.30
2023-01-26T05:42:07.061Z,509.85
2023-01-26T05:44:33.698Z,513.25
2023-01-26T05:47:00.337Z,514.97
2023-01-26T05:49:26.968Z,506.65
2023-01-26T05:51:53.608Z,509.45
2023-01-26T05:54:20.182Z,505.80
2023-01-26T05:56:46.792Z,514.80
2023-01-26T05:59:13.824Z,510.58
2023-01-26T06:01:40.611Z,504.77
2023-01-26T06:04:07.815Z,516.15
2023-01-26T06:06:34.410Z,502.85
2023-01-26T06:09:01.086Z,505.87
2023-01-26T06:11:27.680Z,504.15
2023-01-26T06:13:54.311Z,502.35
2023-01-26T06:16:20.893Z,498.83
2023-01-26T06:18:50.658Z,501.50
2023-01-26T06:21:17.309Z,501.58
2023-01-26T06:23:44.451Z,505.52
2023-01-26T06:26:11.098Z,501.58
2023-01-26T06:28:38.112Z,512.90
2023-01-26T06:31:07.075Z,511.42
2023-01-26T06:33:35.624Z,504.20
2023-01-26T06:36:03.513Z,504.33
2023-01-26T06:38:30.327Z,506.67
2023-01-26T06:41:05.028Z,500.63
2023-01-26T06:43:33.784Z,499.73
2023-01-26T06:46:01.376Z,502.85
2023-01-26T06:48:30.760Z,500.70
2023-01-26T06:51:03.715Z,505.77
2023-01-26T06:53:35.018Z,501.95
2023-01-26T06:56:02.145Z,498.63
2023-01-26T06:58:28.762Z,498.55
2023-01-26T07:00:56.578Z,499.42
2023-01-26T07:03:23.677Z,499.75
2023-01-26T07:05:50.315Z,490.80
2023-01-26T07:08:17.037Z,499.60
2023-01-26T07:10:43.736Z,503.80
2023-01-26T07:13:10.449Z,502.08
2023-01-26T07:15:37.117Z,502.67
2023-01-26T07:18:03.889Z,503.27
2023-01-26T07:20:30.566Z,497.45
2023-01-26T07:23:00.607Z,500.30
2023-01-26T07:25:27.382Z,503.95
2023-01-26T07:27:58.497Z,500.88
2023-01-26T07:30:25.858Z,501.60
2023-01-26T07:32:52.457Z,509.35
2023-01-26T07:35:19.145Z,493.92
2023-01-26T07:37:45.802Z,506.67
2023-01-26T07:40:13.166Z,497.25
2023-01-26T07:42:40.178Z,505.65
2023-01-26T07:45:07.533Z,504.42
2023-01-26T07:47:35.897Z,501.95
2023-01-26T07:50:02.699Z,499.88
2023-01-26T07:52:29.444Z,497.50
2023-01-26T07:54:56.132Z,502.17
2023-01-26T07:57:22.777Z,502.05
2023-01-26T07:59:49.431Z,502.27
2023-01-26T08:02:16.027Z,500.35
2023-01-26T08:04:42.685Z,495.17
2023-01-26T08:07:09.278Z,501.77
2023-01-26T08:09:36.098Z,505.60
2023-01-26T08:12:02.804Z,505.45
2023-01-26T08:14:38.360Z,508.13
2023-01-26T08:17:12.707Z,506.27
2023-01-26T08:19:39.336Z,507.75
2023-01-26T08:22:05.933Z,500.88
2023-01-26T08:24:32.506Z,503.85
2023-01-26T08:26:59.147Z,506.73
2023-01-26T08:29:25.739Z,499.75
2023-01-26T08:31:53.512Z,496.48
2023-01-26T08:34:22.371Z,499.70
2023-01-26T08:36:49.383Z,507.70
2023-01-26T08:39:16.076Z,501.70
2023-01-26T08:41:42.712Z,507.95
2023-01-26T08:44:10.666Z,502.90
2023-01-26T08:46:37.438Z,503.35
2023-01-26T08:49:04.101Z,500.75
2023-01-26T08:51:30.819Z,498.60
2023-01-26T08:53:57.558Z,504.63
2023-01-26T08:56:24.385Z,507.48
2023-01-26T08:58:51.015Z,502.57
2023-01-26T09:01:18.111Z,504.15
2023-01-26T09:03:45.027Z,507.63
2023-01-26T09:06:13.546Z,508.15
2023-01-26T09:08:40.467Z,515.67
2023-01-26T09:11:07.856Z,512.28
2023-01-26T09:13:34.554Z,513.60
2023-01-26T09:16:04.744Z,522.95
2023-01-26T09:18:31.397Z,521.03
2023-01-26T09:21:06.286Z,518.88
2023-01-26T09:23:33.896Z,521.65
2023-01-26T09:26:00.605Z,514.42
2023-01-26T09:28:27.588Z,518.63
2023-01-26T09:30:54.444Z,515.58
2023-01-26T09:33:22.767Z,520.70
2023-01-26T09:35:50.068Z,514.17
2023-01-26T09:38:17.045Z,516.05
2023-01-26T09:40:50.943Z,529.58
2023-01-26T09:43:36.422Z,523.53
2023-01-26T09:46:06.062Z,528.03
2023-01-26T09:49:17.014Z,529.90
2023-01-26T09:51:51.810Z,533.20
2023-01-26T09:54:37.075Z,537.10
2023-01-26T09:57:18.960Z,530.25
2023-01-26T09:59:58.392Z,521.47
2023-01-26T10:02:38.007Z,555.25
2023-01-26T10:05:25.282Z,549.25
2023-01-26T10:07:51.919Z,547.30
2023-01-26T10:10:34.745Z,553.33
2023-01-26T10:13:02.726Z,552.33
2023-01-26T10:15:33.498Z,550.42
2023-01-26T10:18:06.286Z,549.63
2023-01-26T10:20:58.535Z,545.70
2023-01-26T10:23:33.570Z,554.92
2023-01-26T10:26:15.443Z,551.38
2023-01-26T10:28:43.960Z,553.08
2023-01-26T10:31:22.809Z,534.55
2023-01-26T10:34:35.955Z,529.95
2023-01-26T10:37:20.675Z,557.13
2023-01-26T10:40:01.518Z,538.28
2023-01-26T10:42:30.705Z,547.83
2023-01-26T10:45:00.315Z,550.35
2023-01-26T10:47:27.460Z,539.90
2023-01-26T10:50:13.994Z,555.25
2023-01-26T10:52:57.786Z,548.47
2023-01-26T10:55:25.162Z,550.58
2023-01-26T10:57:52.356Z,555.03
2023-01-26T11:00:19.949Z,531.08
2023-01-26T11:02:52.275Z,528.10
2023-01-26T11:05:21.907Z,531.25
2023-01-26T11:08:00.310Z,556.22
2023-01-26T11:10:37.806Z,559.85
2023-01-26T11:13:23.116Z,544.90
2023-01-26T11:16:00.788Z,557.08
2023-01-26T11:18:51.847Z,555.78
2023-01-26T11:21:24.551Z,552.10
2023-01-26T11:24:14.052Z,527.92
2023-01-26T11:27:17.172Z,528.55
2023-01-26T11:30:04.235Z,526.92
2023-01-26T11:32:40.358Z,531.45
2023-01-26T11:35:22.506Z,526.85
2023-01-26T11:38:16.919Z,527.90
2023-01-26T11:41:02.307Z,523.20
2023-01-26T11:43:47.147Z,526.60
2023-01-26T11:46:39.028Z,525.80
2023-01-26T11:49:43.884Z,525.22
2023-01-26T11:52:45.440Z,543.63
2023-01-26T11:55:36.863Z,543.13
2023-01-26T11:58:12.415Z,538.25
2023-01-26T12:00:44.075Z,537.40
2023-01-26T12:03:29.268Z,515.15
2023-01-26T12:06:00.432Z,511.17
2023-01-26T12:08:38.616Z,512.53
2023-01-26T12:11:23.346Z,503.23
2023-01-26T12:14:00.436Z,517.15
2023-01-26T12:16:43.827Z,506.35
2023-01-26T12:19:20.869Z,511.00
2023-01-26T12:21:49.989Z,495.30
2023-01-26T12:25:00.924Z,499.08
2023-01-26T12:27:36.480Z,489.30
2023-01-26T12:30:28.366Z,490.65
2023-01-26T12:32:55.135Z,487.42
2023-01-26T12:35:54.569Z,492.00
2023-01-26T12:38:30.056Z,489.13
2023-01-26T12:41:21.875Z,493.42
2023-01-26T12:44:03.251Z,493.85
2023-01-26T12:46:35.183Z,496.73
2023-01-26T12:49:10.691Z,486.73
2023-01-26T12:51:50.513Z,488.83
2023-01-26T12:54:45.190Z,496.20
2023-01-26T12:57:20.239Z,482.07
2023-01-26T12:59:49.181Z,489.60
2023-01-26T13:02:16.045Z,487.63
2023-01-26T13:04:46.140Z,478.23
2023-01-26T13:07:31.734Z,481.08
2023-01-26T13:10:19.407Z,478.37
2023-01-26T13:13:09.054Z,482.10
2023-01-26T13:15:35.797Z,475.92
2023-01-26T13:18:04.341Z,478.70
2023-01-26T13:20:48.438Z,484.35
2023-01-26T13:23:39.247Z,484.13
2023-01-26T13:26:41.242Z,488.88
2023-01-26T13:29:27.270Z,484.33
2023-01-26T13:32:17.260Z,479.80
2023-01-26T13:34:47.482Z,488.20
2023-01-26T13:37:21.424Z,493.85
2023-01-26T13:40:00.166Z,492.73
2023-01-26T13:42:41.445Z,495.23
2023-01-26T13:45:16.992Z,496.35
2023-01-26T13:47:49.025Z,502.42
2023-01-26T13:50:39.135Z,504.48
2023-01-26T13:53:29.110Z,491.67
2023-01-26T13:55:59.958Z,489.33
2023-01-26T13:58:27.615Z,482.70
2023-01-26T14:01:06.591Z,485.58
2023-01-26T14:03:33.524Z,494.05
2023-01-26T14:06:26.602Z,494.23
2023-01-26T14:08:55.894Z,495.45
2023-01-26T14:11:26.618Z,495.33
2023-01-26T14:13:56.333Z,491.88
2023-01-26T14:16:31.983Z,489.88
2023-01-26T14:19:16.214Z,485.95
2023-01-26T14:21:50.646Z,491.08
2023-01-26T14:24:21.028Z,484.55
2023-01-26T14:26:48.422Z,493.07
2023-01-26T14:29:27.377Z,486.87
2023-01-26T14:31:57.167Z,485.10
2023-01-26T14:34:30.070Z,486.75
2023-01-26T14:37:17.780Z,487.77
2023-01-26T14:39:47.724Z,493.55
2023-01-26T14:42:19.718Z,483.90
2023-01-26T14:44:47.288Z,492.60
2023-01-26T14:47:25.056Z,490.02
2023-01-26T14:49:57.950Z,488.38
2023-01-26T14:52:28.352Z,489.85
2023-01-26T14:54:58.610Z,489.25
2023-01-26T14:57:27.681Z,485.65
2023-01-26T14:59:57.478Z,476.88
2023-01-26T15:02:37.374Z,480.27
2023-01-26T15:05:18.829Z,485.30
2023-01-26T15:07:50.659Z,483.92
2023-01-26T15:10:28.302Z,483.27
2023-01-26T15:13:00.819Z,481.80
2023-01-26T15:15:34.316Z,477.15
2023-01-26T15:18:05.707Z,486.30
2023-01-26T15:20:33.290Z,484.52
2023-01-26T15:23:00.265Z,488.02
2023-01-26T15:25:29.493Z,487.33
2023-01-26T15:28:00.173Z,494.80
2023-01-26T15:30:32.811Z,490.00
2023-01-26T15:33:00.123Z,498.05
2023-01-26T15:35:34.662Z,488.58
2023-01-26T15:38:08.906Z,484.52
2023-01-26T15:40:35.972Z,492.08
2023-01-26T15:43:19.499Z,491.45
2023-01-26T15:45:59.846Z,484.27
2023-01-26T15:48:26.805Z,496.13
2023-01-26T15:50:53.459Z,494.90
2023-01-26T15:53:21.899Z,490.37
2023-01-26T15:55:52.618Z,495.15
2023-01-26T15:58:19.703Z,493.48
2023-01-26T16:00:47.389Z,496.15
2023-01-26T16:03:18.581Z,500.88
2023-01-26T16:05:49.254Z,500.83
2023-01-26T16:08:17.188Z,502.33
2023-01-26T16:10:44.556Z,504.58
2023-01-26T16:13:12.863Z,507.75
2023-01-26T16:15:43.352Z,511.02
2023-01-26T16:18:10.598Z,505.25
2023-01-26T16:20:39.494Z,508.42
2023-01-26T16:23:28.651Z,506.38
2023-01-26T16:25:55.862Z,515.53
2023-01-26T16:28:22.770Z,517.10
2023-01-26T16:30:51.190Z,509.40
2023-01-26T16:33:24.354Z,508.80
2023-01-26T16:35:50.978Z,508.77
2023-01-26T16:38:17.730Z,505.90
2023-01-26T16:40:46.965Z,505.40
2023-01-26T16:43:25.653Z,511.67
2023-01-26T16:45:53.360Z,503.48
2023-01-26T16:48:20.824Z,505.00
2023-01-26T16:50:51.735Z,501.38
2023-01-26T16:53:26.651Z,505.70
2023-01-26T16:55:54.111Z,501.90
2023-01-26T16:58:21.807Z,501.85
2023-01-26T17:00:49.275Z,508.42
2023-01-26T17:03:15.912Z,514.28
2023-01-26T17:05:43.251Z,509.92
2023-01-26T17:08:10.179Z,503.50
2023-01-26T17:10:38.119Z,510.90
2023-01-26T17:13:05.577Z,509.27
2023-01-26T17:15:32.185Z,509.83
2023-01-26T17:17:59.056Z,509.70
2023-01-26T17:20:25.874Z,504.45
2023-01-26T17:22:52.579Z,511.80
2023-01-26T17:25:19.524Z,507.40
2023-01-26T17:27:47.346Z,509.17
2023-01-26T17:30:14.132Z,519.50
2023-01-26T17:32:42.574Z,507.87
2023-01-26T17:35:09.648Z,506.67
2023-01-26T17:37:37.557Z,500.50
2023-01-26T17:40:04.743Z,507.90
2023-01-26T17:42:33.362Z,510.77
2023-01-26T17:45:00.069Z,498.83
2023-01-26T17:47:26.717Z,504.90
2023-01-26T17:49:53.315Z,501.30
2023-01-26T17:52:19.896Z,510.20
2023-01-26T17:54:46.512Z,511.25
2023-01-26T17:57:15.025Z,515.08
2023-01-26T17:59:41.723Z,511.42
2023-01-26T18:02:11.427Z,505.33
2023-01-26T18:04:38.023Z,507.77
2023-01-26T18:07:04.836Z,506.13
2023-01-26T18:09:31.998Z,501.40
2023-01-26T18:11:58.656Z,505.73
2023-01-26T18:14:25.321Z,505.42
2023-01-26T18:16:51.998Z,504.47
2023-01-26T18:19:18.862Z,507.80
2023-01-26T18:21:50.874Z,506.48
2023-01-26T18:24:17.901Z,505.60
2023-01-26T18:26:44.913Z,503.50
2023-01-26T18:29:11.665Z,511.52
2023-01-26T18:31:42.218Z,507.20
2023-01-26T18:34:10.467Z,509.38
2023-01-26T18:36:37.142Z,507.77
2023-01-26T18:39:08.794Z,507.95
2023-01-26T18:41:35.518Z,514.97
2023-01-26T18:44:03.621Z,500.30
2023-01-26T18:46:31.367Z,508.92
2023-01-26T18:49:02.856Z,509.75
2023-01-26T18:51:34.752Z,512.30
2023-01-26T18:54:01.676Z,511.52
2023-01-26T18:56:28.438Z,506.73
2023-01-26T18:58:55.052Z,503.40
2023-01-26T19:01:22.363Z,508.67
2023-01-26T19:03:54.124Z,508.67
2023-01-26T19:06:22.159Z,511.88
2023-01-26T19:08:58.778Z,504.10
2023-01-26T19:11:31.136Z,500.58
2023-01-26T19:13:58.654Z,508.15
2023-01-26T19:16:25.928Z,508.50
2023-01-26T19:18:54.125Z,507.77
2023-01-26T19:21:24.160Z,501.35
2023-01-26T19:23:52.621Z,510.20
2023-01-26T19:26:21.883Z,502.77
2023-01-26T19:28:50.974Z,508.23
2023-01-26T19:31:19.445Z,504.33
2023-01-26T19:33:54.482Z,505.33
2023-01-26T19:36:22.134Z,509.85
2023-01-26T19:38:49.102Z,500.35
2023-01-26T19:41:16.788Z,497.08
2023-01-26T19:43:44.392Z,501.38
2023-01-26T19:46:13.184Z,502.63
2023-01-26T19:48:40.241Z,504.88
2023-01-26T19:51:15.672Z,498.52
2023-01-26T19:53:44.923Z,503.98
2023-01-26T19:56:13.236Z,498.00
2023-01-26T19:58:41.295Z,494.50
2023-01-26T20:01:10.861Z,494.63
2023-01-26T20:03:38.353Z,508.10
2023-01-26T20:06:06.486Z,503.70
2023-01-26T20:08:33.191Z,496.40
2023-01-26T20:11:07.717Z,503.52
2023-01-26T20:13:35.144Z,503.63
2023-01-26T20:16:03.598Z,501.73
2023-01-26T20:18:30.498Z,500.60
2023-01-26T20:21:00.383Z,509.90
2023-01-26T20:23:27.817Z,508.17
2023-01-26T20:26:09.398Z,506.95
2023-01-26T20:28:37.779Z,500.00
2023-01-26T20:31:15.579Z,501.50
2023-01-26T20:33:44.416Z,509.13
2023-01-26T20:36:13.049Z,513.40
2023-01-26T20:38:39.885Z,508.17
2023-01-26T20:41:08.292Z,505.60
2023-01-26T20:43:39.205Z,513.25
2023-01-26T20:46:11.889Z,504.70
2023-01-26T20:48:38.881Z,499.35
2023-01-26T20:51:17.231Z,498.52
2023-01-26T20:53:45.752Z,495.43
2023-01-26T20:56:14.060Z,502.27
2023-01-26T20:58:42.792Z,495.77
2023-01-26T21:01:12.487Z,508.98
2023-01-26T21:03:40.204Z,506.58
2023-01-26T21:06:08.894Z,510.30
2023-01-26T21:08:39.717Z,513.72
2023-01-26T21:11:09.806Z,511.77
2023-01-26T21:13:37.521Z,504.00
2023-01-26T21:16:05.063Z,504.45
2023-01-26T21:18:31.733Z,510.40
2023-01-26T21:21:04.767Z,510.33
2023-01-26T21:23:33.020Z,515.97
2023-01-26T21:26:09.784Z,514.53
2023-01-26T21:28:36.469Z,509.50
2023-01-26T21:31:04.935Z,502.83
2023-01-26T21:33:33.145Z,512.80
2023-01-26T21:36:01.590Z,513.65
2023-01-26T21:38:31.996Z,510.80
2023-01-26T21:41:35.207Z,506.27
2023-01-26T21:44:09.774Z,517.97
2023-01-26T21:46:36.560Z,515.97
2023-01-26T21:49:04.398Z,504.90
2023-01-26T21:51:49.795Z,503.58
2023-01-26T21:54:17.083Z,506.83
2023-01-26T21:56:43.811Z,507.67
2023-01-26T21:59:14.536Z,504.67
2023-01-26T22:01:47.622Z,511.88
2023-01-26T22:04:17.012Z,505.80
2023-01-26T22:06:43.992Z,501.63
2023-01-26T22:09:12.783Z,505.30
2023-01-26T22:11:39.917Z,507.02
2023-01-26T22:14:07.296Z,507.13
2023-01-26T22:16:34.049Z,502.23
2023-01-26T22:19:00.780Z,508.17
2023-01-26T22:21:27.534Z,506.25
2023-01-26T22:23:55.196Z,508.23
2023-01-26T22:26:23.263Z,513.55
2023-01-26T22:28:54.547Z,508.67
2023-01-26T22:31:23.541Z,517.25
2023-01-26T22:33:51.419Z,511.43
2023-01-26T22:36:18.900Z,513.17
2023-01-26T22:38:46.735Z,505.23
2023-01-26T22:41:24.645Z,504.42
2023-01-26T22:43:54.197Z,504.15
2023-01-26T22:46:23.157Z,506.03
2023-01-26T22:48:50.948Z,503.90
2023-01-26T22:51:26.003Z,510.80
2023-01-26T22:53:54.054Z,506.58
2023-01-26T22:56:21.024Z,508.83
2023-01-26T22:58:58.554Z,505.35
2023-01-26T23:01:31.321Z,511.80
2023-01-26T23:03:59.098Z,509.48
2023-01-26T23:06:26.139Z,504.13
2023-01-26T23:08:53.686Z,511.10
2023-01-26T23:11:28.729Z,510.60
2023-01-26T23:13:56.523Z,504.23
2023-01-26T23:16:24.058Z,504.73
2023-01-26T23:18:52.725Z,507.70
2023-01-26T23:21:19.507Z,505.20
2023-01-26T23:23:46.144Z,507.02
2023-01-26T23:26:12.817Z,505.13
2023-01-26T23:28:41.747Z,512.17
2023-01-26T23:31:09.516Z,503.60
2023-01-26T23:33:37.011Z,507.85
2023-01-26T23:36:05.052Z,506.17
2023-01-26T23:38:32.189Z,509.35
2023-01-26T23:41:03.257Z,504.58
2023-01-26T23:43:29.883Z,500.90
2023-01-26T23:45:56.858Z,501.52
2023-01-26T23:48:24.719Z,505.55
2023-01-26T23:50:59.970Z,504.73
2023-01-26T23:53:27.290Z,502.92
2023-01-26T23:55:54.144Z,503.30
2023-01-26T23:58:20.993Z,499.60
